Time;durP1;ratioP1;P1;durP2;ratioP2;P2;SDS_P1;SDS_P2;PMS_P1;PMS_P2;Temp;Humidity;BMP_temperature;BMP_pressure;BME280_temperature;BME280_humidity;BME280_pressure;Samples;Min_cycle;Max_cycle;Signal;HPM_P1;HPM_P2
2024/04/22 00:01:54;;;;;;;4.65;2.75;;;;;;;-146.27;76.59;45476.78;5466517;26;20416;-71
2024/04/22 00:04:19;;;;;;;6.32;3.40;;;;;;;-146.27;76.46;45488.75;5448748;26;20031;-70
2024/04/22 00:06:45;;;;;;;7.63;2.90;;;;;;;-146.27;77.21;45448.94;5464472;26;20001;-69
2024/04/22 00:09:12;;;;;;;5.03;2.95;;;;;;;-146.27;76.90;45438.97;5470514;26;20770;-71
2024/04/22 00:11:37;;;;;;;5.03;3.53;;;;;;;-146.27;76.99;45409.13;5459092;26;20087;-70
2024/04/22 00:14:03;;;;;;;3.15;2.78;;;;;;;-146.27;77.18;45385.25;5447916;26;20007;-70
2024/04/22 00:16:28;;;;;;;6.68;3.17;;;;;;;-146.27;76.90;45413.09;5468644;26;20003;-70
2024/04/22 00:18:53;;;;;;;3.33;2.67;;;;;;;-146.27;76.84;45395.19;5463948;26;20038;-70
2024/04/22 00:21:19;;;;;;;3.72;2.55;;;;;;;-146.27;76.99;45405.16;5458164;26;20065;-71
2024/04/22 00:23:44;;;;;;;4.40;3.03;;;;;;;-146.27;77.75;45353.41;5472244;26;19998;-67
2024/04/22 00:26:10;;;;;;;4.55;3.03;;;;;;;-146.27;77.70;45327.53;5465200;26;20062;-66
2024/04/22 00:28:37;;;;;;;5.35;2.88;;;;;;;-146.27;77.72;45291.72;5458466;26;20075;-66
2024/04/22 00:31:02;;;;;;;5.72;3.00;;;;;;;-146.27;77.93;45253.91;5460787;26;19995;-68
2024/04/22 00:33:28;;;;;;;4.07;2.78;;;;;;;-146.27;77.45;45297.69;5452082;26;20006;-67
2024/04/22 00:35:55;;;;;;;6.32;3.80;;;;;;;-146.27;78.08;45245.94;5460074;26;19998;-67
2024/04/22 00:38:20;;;;;;;4.20;3.03;;;;;;;-146.27;78.27;45190.22;5460070;26;20066;-66
2024/04/22 00:40:45;;;;;;;5.95;3.17;;;;;;;-146.27;78.13;45194.19;5470148;26;20785;-65
2024/04/22 00:43:11;;;;;;;3.95;2.78;;;;;;;-146.27;78.61;45152.41;5478974;26;20531;-67
2024/04/22 00:45:36;;;;;;;7.32;3.75;;;;;;;-146.27;78.24;45154.38;5448724;26;20040;-66
2024/04/22 00:48:02;;;;;;;3.88;2.67;;;;;;;-146.27;78.46;45142.44;5457361;26;20006;-67
2024/04/22 00:50:29;;;;;;;5.85;2.83;;;;;;;-146.27;78.37;45114.59;5460475;26;20465;-66
2024/04/22 00:52:56;;;;;;;7.35;3.00;;;;;;;-146.27;78.43;45108.63;5467855;26;19998;-65
2024/04/22 00:55:23;;;;;;;4.18;2.47;;;;;;;-146.27;78.62;45042.94;5454695;26;20007;-66
2024/04/22 00:57:49;;;;;;;4.40;2.80;;;;;;;-146.27;77.89;45122.53;5470019;26;19998;-68
2024/04/22 01:00:15;;;;;;;2.70;2.45;;;;;;;-146.27;77.96;45106.63;5448690;26;20316;-68
2024/04/22 01:02:41;;;;;;;4.50;2.80;;;;;;;-146.27;77.70;45118.56;5482179;26;19993;-66
2024/04/22 01:05:06;;;;;;;5.97;3.05;;;;;;;-146.27;77.73;45122.53;5486092;25;19998;-67
2024/04/22 01:07:32;;;;;;;5.30;2.60;;;;;;;-146.27;77.53;45140.47;5466594;26;20005;-68
2024/04/22 01:09:59;;;;;;;3.78;3.05;;;;;;;-146.27;78.15;45062.84;5467945;26;20002;-68
2024/04/22 01:12:25;;;;;;;3.13;2.78;;;;;;;-146.27;78.13;45086.72;5453837;26;20908;-67
2024/04/22 01:14:50;;;;;;;3.95;2.72;;;;;;;-146.27;78.00;45094.69;5450843;26;20067;-67
2024/04/22 01:17:15;;;;;;;7.63;2.70;;;;;;;-146.27;78.36;45084.72;5461959;26;20043;-67
2024/04/22 01:19:41;;;;;;;4.40;2.85;;;;;;;-146.27;78.49;45054.88;5468214;26;19994;-67
2024/04/22 01:22:06;;;;;;;2.70;2.10;;;;;;;-146.27;78.33;45068.81;5464352;26;20031;-67
2024/04/22 01:24:32;;;;;;;3.33;2.70;;;;;;;-146.27;78.82;45023.03;5462215;26;20018;-67
2024/04/22 01:27:01;;;;;;;7.45;2.70;;;;;;;-146.27;78.71;45023.03;5462609;26;20424;-68
2024/04/22 01:29:27;;;;;;;7.13;2.85;;;;;;;-146.27;78.61;45015.09;5486632;26;20002;-68
2024/04/22 01:31:52;;;;;;;3.85;2.47;;;;;;;-146.27;79.03;45011.09;5454694;26;20354;-66
2024/04/22 01:34:17;;;;;;;4.82;2.90;;;;;;;-146.27;78.91;44991.19;5450441;26;20439;-70
2024/04/22 01:36:43;;;;;;;3.85;2.40;;;;;;;-146.27;78.81;44987.22;5455438;26;20434;-67
2024/04/22 01:39:09;;;;;;;3.10;2.50;;;;;;;-146.27;78.23;45038.97;5457692;26;20003;-68
2024/04/22 01:41:34;;;;;;;4.05;2.47;;;;;;;-146.27;78.46;44995.19;5460990;26;20002;-68
2024/04/22 01:43:59;;;;;;;6.88;2.60;;;;;;;-146.27;78.84;44977.28;5461748;26;20013;-69
2024/04/22 01:46:25;;;;;;;5.80;2.67;;;;;;;-146.27;78.85;44967.31;5470375;26;20356;-68
2024/04/22 01:48:50;;;;;;;6.80;2.38;;;;;;;-146.27;79.03;44963.34;5456377;26;20023;-68
2024/04/22 01:51:15;;;;;;;4.20;2.60;;;;;;;-146.27;79.46;44915.59;5451204;26;20005;-66
2024/04/22 01:53:41;;;;;;;2.90;2.00;;;;;;;-146.27;78.89;44931.50;5473412;26;19994;-68
2024/04/22 01:56:06;;;;;;;7.68;2.60;;;;;;;-146.27;78.88;44955.38;5451037;26;19995;-67
2024/04/22 01:58:31;;;;;;;6.72;2.08;;;;;;;-146.27;78.40;44939.47;5473008;26;20025;-68
2024/04/22 02:01:03;;;;;;;3.30;2.22;;;;;;;-146.27;78.58;44929.50;5472714;26;20002;-68
2024/04/22 02:03:28;;;;;;;4.10;2.45;;;;;;;-146.27;77.94;44943.44;5465609;26;20071;-68
2024/04/22 02:05:54;;;;;;;4.80;2.05;;;;;;;-146.27;78.08;44955.38;5453638;26;20007;-68
2024/04/22 02:08:19;;;;;;;5.72;1.90;;;;;;;-146.27;78.11;44983.25;5468016;26;20094;-68
2024/04/22 02:10:44;;;;;;;4.43;2.20;;;;;;;-146.27;78.00;44949.41;5481032;26;20011;-69
2024/04/22 02:13:10;;;;;;;6.63;1.85;;;;;;;-146.27;78.20;44967.31;5486488;26;19997;-67
2024/04/22 02:15:35;;;;;;;8.43;2.35;;;;;;;-146.27;77.92;44961.34;5451701;26;19999;-65
2024/04/22 02:18:00;;;;;;;5.63;2.30;;;;;;;-146.27;78.11;44967.31;5457666;26;19999;-68
2024/04/22 02:20:26;;;;;;;4.97;2.03;;;;;;;-146.27;78.13;44971.31;5456436;26;20365;-66
2024/04/22 02:22:51;;;;;;;2.25;1.80;;;;;;;-146.27;78.14;44961.34;5449357;26;20487;-67
2024/04/22 02:25:17;;;;;;;9.07;2.40;;;;;;;-146.27;77.50;45011.09;5474007;26;19998;-67
2024/04/22 02:27:42;;;;;;;2.97;1.58;;;;;;;-146.27;77.61;44991.19;5475098;26;20796;-67
2024/04/22 02:30:08;;;;;;;4.85;1.90;;;;;;;-146.27;77.75;45005.13;5450426;26;20389;-68
2024/04/22 02:32:34;;;;;;;7.72;1.90;;;;;;;-146.27;77.94;44981.25;5450383;26;19999;-67
2024/04/22 02:35:00;;;;;;;6.00;1.63;;;;;;;-146.27;77.74;44983.25;5457522;26;20043;-66
2024/04/22 02:37:25;;;;;;;11.32;1.95;;;;;;;-146.27;77.59;45013.09;5450203;26;20014;-67
2024/04/22 02:39:51;;;;;;;2.83;1.58;;;;;;;-146.27;77.89;44987.22;5455981;26;20601;-66
2024/04/22 02:42:16;;;;;;;16.50;2.92;;;;;;;-146.27;77.53;44979.25;5464395;26;20076;-70
2024/04/22 02:44:41;;;;;;;5.15;1.42;;;;;;;-146.27;77.12;44997.16;5461181;26;20009;-70
2024/04/22 02:47:07;;;;;;;8.93;1.88;;;;;;;-146.27;76.96;45027.03;5466154;26;20115;-71
2024/04/22 02:49:32;;;;;;;2.85;1.42;;;;;;;-146.27;76.21;45058.88;5461938;26;20067;-70
2024/04/22 02:51:57;;;;;;;4.43;1.50;;;;;;;-146.27;75.73;45082.75;5483963;26;19995;-71
2024/04/22 02:54:28;;;;;;;6.47;1.52;;;;;;;-146.27;75.51;45086.72;5482374;26;19998;-71
2024/04/22 02:56:56;;;;;;;5.07;1.30;;;;;;;-146.27;75.30;45096.69;5449407;26;20017;-71
2024/04/22 02:59:22;;;;;;;8.02;2.03;;;;;;;-146.27;74.75;45108.63;5449848;26;20067;-72
2024/04/22 03:01:50;;;;;;;3.13;1.52;;;;;;;-146.27;74.43;45154.38;5462571;26;20442;-70
2024/04/22 03:04:16;;;;;;;6.43;1.50;;;;;;;-146.27;74.60;45174.28;5459107;26;19999;-70
2024/04/22 03:06:41;;;;;;;3.90;1.60;;;;;;;-146.27;74.86;45176.28;5463869;26;20531;-71
2024/04/22 03:09:07;;;;;;;6.20;1.70;;;;;;;-146.27;74.50;45186.22;5454985;26;20005;-70
2024/04/22 03:11:32;;;;;;;7.30;1.50;;;;;;;-146.27;74.48;45206.13;5452782;26;19999;-70
2024/04/22 03:13:57;;;;;;;5.57;1.48;;;;;;;-146.27;74.00;45222.06;5456564;26;20019;-70
2024/04/22 03:16:23;;;;;;;3.30;1.85;;;;;;;-146.27;74.17;45212.09;5452101;26;20460;-70
2024/04/22 03:18:48;;;;;;;4.25;1.33;;;;;;;-146.27;74.27;45208.13;5472237;26;20141;-70
2024/04/22 03:21:14;;;;;;;6.47;1.88;;;;;;;-146.27;74.27;45261.84;5450770;26;20052;-71
2024/04/22 03:23:39;;;;;;;5.93;1.70;;;;;;;-146.27;74.22;45257.88;5449459;26;20001;-69
2024/04/22 03:26:05;;;;;;;3.20;1.60;;;;;;;-146.27;74.60;45212.09;5453697;26;20002;-71
2024/04/22 03:28:30;;;;;;;5.65;1.83;;;;;;;-146.27;74.92;45212.09;5485924;26;19994;-71
2024/04/22 03:30:55;;;;;;;4.40;1.52;;;;;;;-146.27;75.71;45174.28;5485508;26;20005;-71
2024/04/22 03:33:21;;;;;;;5.35;2.10;;;;;;;-146.27;75.54;45164.34;5478082;26;19998;-71
2024/04/22 03:35:46;;;;;;;5.68;1.80;;;;;;;-146.27;75.65;45138.47;5459703;26;19995;-70
2024/04/22 03:38:12;;;;;;;10.40;2.03;;;;;;;-146.27;75.72;45186.22;5449335;26;20003;-69
2024/04/22 03:40:38;;;;;;;9.00;1.77;;;;;;;-146.27;75.92;45172.28;5449391;26;20007;-70
2024/04/22 03:43:03;;;;;;;12.02;1.73;;;;;;;-146.27;76.11;45162.34;5476878;26;20158;-71
2024/04/22 03:45:29;;;;;;;6.18;1.60;;;;;;;-146.27;76.29;45150.41;5485314;26;20438;-69
2024/04/22 03:50:40;;;;;;;;;;;;;;;-146.27;77.09;45122.53;5485554;26;20019;-71
2024/04/22 03:53:06;;;;;;;3.97;1.52;;;;;;;-146.27;77.25;45094.69;5461784;26;19971;-67
2024/04/22 03:55:32;;;;;;;9.63;1.90;;;;;;;-146.27;77.23;45070.81;5448930;26;20132;-67
2024/04/22 03:57:57;;;;;;;9.55;1.70;;;;;;;-146.27;77.26;45080.75;5449122;26;20006;-68
2024/04/22 04:00:23;;;;;;;4.72;1.80;;;;;;;-146.27;77.21;45088.72;5455934;26;19999;-66
2024/04/22 04:02:48;;;;;;;6.78;1.23;;;;;;;-146.27;77.62;45050.91;5456114;26;20132;-66
2024/04/22 04:05:13;;;;;;;4.72;1.58;;;;;;;-146.27;77.76;45023.03;5462999;26;20402;-70
2024/04/22 04:07:39;;;;;;;4.32;1.80;;;;;;;-146.27;77.78;45042.94;5460452;26;19997;-67
2024/04/22 04:10:05;;;;;;;6.10;1.98;;;;;;;-146.27;77.89;45029.00;5461754;26;19991;-68
2024/04/22 04:12:30;;;;;;;9.82;2.00;;;;;;;-146.27;78.07;45029.00;5464684;26;20076;-67
2024/04/22 04:14:56;;;;;;;3.75;1.85;;;;;;;-146.27;77.44;45070.81;5449498;26;19998;-66
2024/04/22 04:17:22;;;;;;;4.90;1.90;;;;;;;-146.27;77.09;45112.59;5458416;26;19990;-67
2024/04/22 04:19:47;;;;;;;5.15;1.85;;;;;;;-146.27;77.01;45112.59;5478895;26;20055;-66
2024/04/22 04:22:13;;;;;;;5.82;1.50;;;;;;;-146.27;77.20;45146.44;5475791;26;20006;-67
2024/04/22 04:24:38;;;;;;;10.90;1.85;;;;;;;-146.27;77.09;45140.47;5463215;26;20006;-67
2024/04/22 04:27:04;;;;;;;10.75;1.90;;;;;;;-146.27;77.21;45154.38;5454306;26;20006;-68
2024/04/22 04:29:29;;;;;;;8.15;1.65;;;;;;;-146.27;77.56;45146.44;5450084;26;19994;-67
2024/04/22 04:31:54;;;;;;;4.43;1.30;;;;;;;-146.27;77.03;45146.44;5455749;26;19995;-66
2024/04/22 04:34:20;;;;;;;6.47;1.88;;;;;;;-146.27;77.48;45160.34;5448549;26;20006;-69
2024/04/22 04:36:45;;;;;;;5.43;1.95;;;;;;;-146.27;77.82;45166.31;5464040;26;19999;-68
2024/04/22 04:39:11;;;;;;;5.53;1.70;;;;;;;-146.27;78.02;45154.38;5450219;26;20438;-67
2024/04/22 04:41:36;;;;;;;10.38;1.75;;;;;;;-146.27;78.08;45178.28;5456530;26;20438;-68
2024/04/22 04:44:01;;;;;;;7.18;1.58;;;;;;;-146.27;78.00;45170.31;5462736;26;20467;-68
2024/04/22 04:46:27;;;;;;;4.20;1.52;;;;;;;-146.27;77.98;45194.19;5448134;26;20007;-67
2024/04/22 04:48:52;;;;;;;7.43;1.60;;;;;;;-146.27;78.01;45230.00;5448147;26;20523;-67
2024/04/22 04:51:17;;;;;;;2.75;1.75;;;;;;;-146.27;78.35;45198.16;5454093;26;19991;-66
2024/04/22 04:53:43;;;;;;;5.82;1.85;;;;;;;-146.27;78.61;45212.09;5471905;26;20005;-68
2024/04/22 04:56:09;;;;;;;11.07;1.90;;;;;;;-146.27;78.81;45218.06;5473251;26;20770;-67
2024/04/22 04:58:34;;;;;;;4.90;1.83;;;;;;;-146.27;78.46;45259.88;5481275;26;19998;-67
2024/04/22 05:01:00;;;;;;;6.82;2.33;;;;;;;-146.27;78.58;45285.75;5466341;26;20848;-67
2024/04/22 05:03:25;;;;;;;4.78;1.60;;;;;;;-146.27;78.38;45295.69;5454547;26;20030;-66
2024/04/22 05:06:01;;;;;;;4.68;1.55;;;;;;;-146.27;78.33;45339.47;5456857;26;20066;-69
2024/04/22 05:08:26;;;;;;;8.32;2.33;;;;;;;-146.27;78.18;45405.16;5448476;26;20378;-67
2024/04/22 05:10:52;;;;;;;5.85;2.00;;;;;;;-146.27;78.17;45421.06;5461692;26;19994;-67
2024/04/22 05:13:17;;;;;;;14.48;1.55;;;;;;;-146.27;78.09;45452.91;5462940;26;20009;-66
2024/04/22 05:15:42;;;;;;;6.13;1.20;;;;;;;-146.27;78.08;45516.59;5466586;26;20122;-66
2024/04/22 05:18:08;;;;;;;5.90;2.20;;;;;;;-146.27;77.81;45532.53;5459581;26;20015;-68
2024/04/22 05:20:34;;;;;;;4.88;1.77;;;;;;;-146.27;77.94;45568.34;5462058;26;20010;-67
2024/04/22 05:22:59;;;;;;;4.10;1.58;;;;;;;-146.27;77.75;45544.47;5447026;26;19999;-68
2024/04/22 05:25:24;;;;;;;9.73;2.20;;;;;;;-146.27;77.71;45550.44;5454373;26;20005;-69
2024/04/22 05:27:50;;;;;;;3.33;1.33;;;;;;;-146.27;77.82;45550.44;5460908;26;20075;-68
2024/04/22 05:30:16;;;;;;;4.07;1.45;;;;;;;-146.27;78.18;45580.28;5447293;26;19991;-67
2024/04/22 05:32:41;;;;;;;6.80;2.08;;;;;;;-146.27;78.02;45540.50;5456680;26;19999;-67
2024/04/22 05:37:50;;;;;;;;;;;;;;;-146.27;78.32;45522.56;5460466;26;20017;-67
2024/04/22 05:40:16;;;;;;;7.07;2.17;;;;;;;-146.27;78.11;45510.63;5453560;26;19924;-69
2024/04/22 05:42:41;;;;;;;7.07;1.67;;;;;;;-146.27;77.80;45508.63;5461016;26;19999;-68
2024/04/22 05:45:07;;;;;;;10.02;3.13;;;;;;;-146.27;77.53;45518.59;5453059;26;19999;-66
2024/04/22 05:47:32;;;;;;;6.53;2.00;;;;;;;-146.27;76.83;45518.59;5480988;26;20005;-67
2024/04/22 05:49:59;;;;;;;10.90;1.98;;;;;;;-146.27;75.69;45582.28;5455671;26;20023;-68
2024/04/22 05:52:25;;;;;;;7.68;1.75;;;;;;;-146.27;74.40;45614.13;5471521;26;19998;-67
2024/04/22 05:54:51;;;;;;;5.18;1.60;;;;;;;-146.27;73.79;45659.91;5479194;26;20104;-70
2024/04/22 05:57:18;;;;;;;7.20;2.15;;;;;;;-146.27;73.97;45723.59;5463102;26;20014;-67
2024/04/22 05:59:43;;;;;;;3.58;1.63;;;;;;;-146.27;73.54;45731.56;5467730;26;20022;-67
2024/04/22 06:02:09;;;;;;;8.80;2.20;;;;;;;-146.27;73.40;45743.50;5465878;26;20338;-67
2024/04/22 06:04:34;;;;;;;9.48;1.95;;;;;;;-146.27;73.47;45759.44;5466230;26;20450;-69
2024/04/22 06:07:01;;;;;;;10.18;2.28;;;;;;;-146.27;73.41;45721.59;5473699;26;20007;-68
2024/04/22 06:09:26;;;;;;;8.32;2.22;;;;;;;-146.27;72.72;45769.38;5472748;26;20539;-67
2024/04/22 06:11:53;;;;;;;7.80;2.40;;;;;;;-146.27;73.23;45711.66;5463755;26;20007;-67
2024/04/22 06:14:18;;;;;;;10.18;2.03;;;;;;;-146.27;71.96;45775.34;5461781;26;19998;-69
2024/04/22 06:16:44;;;;;;;5.07;1.92;;;;;;;-146.27;70.92;45799.22;5466391;26;20050;-67
2024/04/22 06:19:09;;;;;;;5.10;1.55;;;;;;;-146.27;70.81;45811.19;5468319;26;20006;-67
2024/04/22 06:21:35;;;;;;;5.97;2.20;;;;;;;-146.27;69.28;45892.78;5465491;26;20921;-68
2024/04/22 06:24:00;;;;;;;5.28;2.10;;;;;;;-146.27;69.22;45906.72;5467987;26;19994;-68
2024/04/22 06:26:26;;;;;;;6.25;1.83;;;;;;;-146.27;69.35;45906.72;5470084;26;20756;-67
2024/04/22 06:28:53;;;;;;;7.57;2.17;;;;;;;-146.27;69.54;45930.59;5457256;26;20079;-67
2024/04/22 06:31:18;;;;;;;7.50;1.55;;;;;;;-146.27;71.67;45854.97;5480198;26;19994;-68
2024/04/22 06:33:43;;;;;;;8.05;1.80;;;;;;;-146.27;70.92;45827.09;5460528;26;19999;-69
2024/04/22 06:36:10;;;;;;;4.43;2.10;;;;;;;-146.27;70.72;45862.94;5468208;26;20009;-68
2024/04/22 06:38:36;;;;;;;4.50;1.50;;;;;;;-146.27;70.89;45864.91;5458163;26;20012;-68
2024/04/22 06:41:01;;;;;;;1.92;1.40;;;;;;;-146.27;70.97;45815.16;5464428;26;19995;-70
2024/04/22 06:43:27;;;;;;;7.85;2.30;;;;;;;-146.27;70.83;45841.03;5460529;26;20118;-69
2024/04/22 06:45:52;;;;;;;7.30;1.70;;;;;;;-146.27;70.84;45839.03;5464290;26;20027;-68
2024/04/22 06:48:17;;;;;;;6.22;1.90;;;;;;;-146.27;71.31;45797.25;5451548;26;20005;-69
2024/04/22 06:50:44;;;;;;;7.13;1.30;;;;;;;-146.27;71.22;45773.34;5465126;26;20010;-68
2024/04/22 06:53:10;;;;;;;6.25;1.20;;;;;;;-146.27;70.28;45803.22;5474522;26;20063;-69
2024/04/22 06:55:35;;;;;;;2.58;1.10;;;;;;;-146.27;70.18;45815.16;5453556;26;19999;-68
2024/04/22 06:58:01;;;;;;;8.38;2.55;;;;;;;-146.27;69.94;45839.03;5451909;26;20458;-68
2024/04/22 07:00:28;;;;;;;11.95;1.30;;;;;;;-146.27;69.85;45843.03;5486693;26;20038;-67
2024/04/22 07:02:55;;;;;;;9.05;1.58;;;;;;;-146.27;70.21;45837.06;5471434;26;19999;-69
2024/04/22 07:05:20;;;;;;;5.93;1.70;;;;;;;-146.27;69.61;45831.09;5450827;26;20683;-68
2024/04/22 07:07:46;;;;;;;4.32;1.30;;;;;;;-146.27;69.52;45847.00;5452769;26;20003;-67
2024/04/22 07:10:11;;;;;;;7.95;1.70;;;;;;;-146.27;69.71;45831.09;5456000;26;20017;-69
2024/04/22 07:12:37;;;;;;;4.38;1.55;;;;;;;-146.27;69.88;45856.97;5453959;26;20021;-66
2024/04/22 07:15:04;;;;;;;2.92;1.45;;;;;;;-146.27;70.34;45823.13;5459433;26;19998;-69
2024/04/22 07:17:31;;;;;;;6.65;2.00;;;;;;;-146.27;70.50;45839.03;5467937;26;19990;-68
2024/04/22 07:19:57;;;;;;;6.72;1.40;;;;;;;-146.27;69.65;45815.16;5468087;26;20023;-68
2024/04/22 07:22:27;;;;;;;3.72;1.23;;;;;;;-146.27;68.76;45837.06;5471109;26;20006;-70
2024/04/22 07:24:54;;;;;;;2.55;0.93;;;;;;;-146.27;68.63;45819.13;5463367;26;20002;-66
2024/04/22 07:27:20;;;;;;;5.32;1.33;;;;;;;-146.27;68.91;45835.06;5482202;26;19994;-67
2024/04/22 07:29:46;;;;;;;4.65;1.33;;;;;;;-146.27;68.17;45807.19;5465467;25;19995;-66
2024/04/22 07:32:13;;;;;;;5.57;1.42;;;;;;;-146.27;67.30;45858.94;5477968;26;20005;-69
2024/04/22 07:34:39;;;;;;;5.50;1.23;;;;;;;-146.27;68.05;45856.97;5477030;26;20450;-67
2024/04/22 07:37:49;;;;;;;7.70;1.27;;;;;;;-146.27;67.20;45843.03;5451819;26;20017;-67
2024/04/22 07:40:16;;;;;;;4.90;1.38;;;;;;;-146.27;67.13;45862.94;5468651;26;20014;-68
2024/04/22 07:42:43;;;;;;;2.15;0.90;;;;;;;-146.27;67.20;45914.69;5459944;26;20062;-68
2024/04/22 07:45:09;;;;;;;6.13;1.52;;;;;;;-146.27;64.86;45962.44;5462619;26;19998;-69
2024/04/22 07:47:36;;;;;;;2.45;1.30;;;;;;;-146.27;65.12;46010.22;5465795;26;20055;-68
2024/04/22 07:50:02;;;;;;;9.35;1.52;;;;;;;-146.27;67.85;45986.34;5464533;26;20009;-69
2024/04/22 07:52:30;;;;;;;7.65;1.58;;;;;;;-146.27;68.88;45958.47;5448980;26;20526;-69
2024/04/22 07:54:56;;;;;;;4.35;1.10;;;;;;;-146.27;67.55;45988.31;5465864;26;20442;-68
2024/04/22 07:57:22;;;;;;;4.10;1.48;;;;;;;-146.27;66.42;45998.28;5455515;26;20076;-67
2024/04/22 07:59:48;;;;;;;5.68;1.20;;;;;;;-146.27;66.33;45986.34;5464897;26;20021;-70
2024/04/22 08:02:13;;;;;;;6.05;1.30;;;;;;;-146.27;66.98;45998.28;5456891;26;19998;-68
2024/04/22 08:04:39;;;;;;;4.53;1.50;;;;;;;-146.27;67.37;46028.13;5466905;26;20570;-68
2024/04/22 08:07:08;;;;;;;2.35;1.30;;;;;;;-146.27;66.80;46026.16;5472545;26;20003;-68
2024/04/22 08:09:40;;;;;;;8.85;1.58;;;;;;;-146.27;65.80;46071.94;5465142;26;20718;-68
2024/04/22 08:12:06;;;;;;;7.32;1.60;;;;;;;-146.27;65.66;46042.06;5476243;26;20450;-70
2024/04/22 08:14:32;;;;;;;5.00;1.83;;;;;;;-146.27;66.02;46040.09;5479461;26;20010;-69
2024/04/22 08:16:59;;;;;;;6.47;1.80;;;;;;;-146.27;66.57;46042.06;5475474;26;19994;-68
2024/04/22 08:19:24;;;;;;;3.50;1.20;;;;;;;-146.27;66.66;46010.22;5466397;26;20006;-67
2024/04/22 08:21:50;;;;;;;6.90;1.85;;;;;;;-146.27;67.37;45998.28;5463292;26;20002;-69
2024/04/22 08:24:15;;;;;;;6.32;1.55;;;;;;;-146.27;65.38;46036.09;5452668;26;20367;-68
2024/04/22 08:26:41;;;;;;;6.47;1.92;;;;;;;-146.27;66.42;45970.41;5460158;26;20017;-68
2024/04/22 08:29:06;;;;;;;7.05;1.70;;;;;;;-146.27;64.96;46016.19;5452365;26;20359;-69
2024/04/22 08:31:34;;;;;;;7.40;1.88;;;;;;;-146.27;64.94;46022.16;5453022;26;20035;-68
2024/04/22 08:33:59;;;;;;;7.57;2.33;;;;;;;-146.27;66.74;45992.31;5463271;26;20053;-70
2024/04/22 08:36:27;;;;;;;7.05;1.90;;;;;;;-146.27;64.21;46028.13;5463916;26;20010;-68
2024/04/22 08:38:53;;;;;;;6.25;2.42;;;;;;;-146.27;65.00;46075.91;5470171;26;20006;-67
2024/04/22 08:41:20;;;;;;;10.57;1.92;;;;;;;-146.27;63.91;46050.03;5458760;26;19999;-65
2024/04/22 08:43:46;;;;;;;13.05;2.17;;;;;;;-146.27;62.69;46020.19;5454475;26;20010;-68
2024/04/22 08:46:12;;;;;;;11.93;2.67;;;;;;;-146.27;63.63;46020.19;5471418;26;19994;-69
2024/04/22 08:48:38;;;;;;;5.88;1.52;;;;;;;-146.27;63.34;46081.88;5461951;26;20332;-68
2024/04/22 08:51:05;;;;;;;7.15;1.83;;;;;;;-146.27;62.96;46061.97;5462695;26;20067;-67
2024/04/22 08:53:31;;;;;;;5.53;1.90;;;;;;;-146.27;62.68;46075.91;5475335;26;20459;-66
2024/04/22 08:55:57;;;;;;;6.35;1.60;;;;;;;-146.27;59.97;46155.53;5468925;26;20022;-67
2024/04/22 08:58:24;;;;;;;6.03;1.75;;;;;;;-146.27;59.99;46095.81;5468735;26;19994;-69
2024/04/22 09:00:50;;;;;;;6.28;1.95;;;;;;;-146.27;59.21;46191.38;5475333;26;20435;-68
2024/04/22 09:03:16;;;;;;;3.08;1.67;;;;;;;-146.27;57.27;46181.41;5465653;26;20011;-68
2024/04/22 09:05:41;;;;;;;7.95;1.60;;;;;;;-146.27;58.60;46221.22;5475719;26;20499;-67
2024/04/22 09:08:08;;;;;;;9.98;1.90;;;;;;;-146.27;58.51;46247.09;5457938;26;20438;-65
2024/04/22 09:10:37;;;;;;;6.82;1.60;;;;;;;-146.27;57.47;46253.06;5474322;26;20076;-66
2024/04/22 09:13:03;;;;;;;6.18;1.73;;;;;;;-146.27;57.66;46247.09;5477076;26;20455;-67
2024/04/22 09:15:29;;;;;;;8.85;2.90;;;;;;;-146.27;59.84;46272.97;5464508;26;20009;-67
2024/04/22 09:17:55;;;;;;;4.07;1.90;;;;;;;-146.27;61.50;46247.09;5453004;26;20071;-67
2024/04/22 09:20:26;;;;;;;5.35;2.40;;;;;;;-146.27;60.34;46237.16;5453722;26;20010;-67
2024/04/22 09:22:52;;;;;;;7.20;2.10;;;;;;;-146.27;57.94;46322.75;5465632;26;19998;-67
2024/04/22 09:25:18;;;;;;;11.43;2.95;;;;;;;-146.27;59.35;46318.78;5468274;26;20484;-67
2024/04/22 09:27:46;;;;;;;14.65;2.28;;;;;;;-146.27;59.37;46354.59;5465546;26;20654;-67
2024/04/22 09:30:16;;;;;;;3.42;1.60;;;;;;;-146.27;57.94;46340.66;5458338;26;20038;-67
2024/04/22 09:32:47;;;;;;;6.07;2.00;;;;;;;-146.27;57.60;46350.63;5463444;26;21000;-67
2024/04/22 09:35:17;;;;;;;6.80;2.42;;;;;;;-146.27;59.09;46336.69;5469474;26;20007;-67
2024/04/22 09:37:44;;;;;;;6.72;1.60;;;;;;;-146.27;58.28;46376.50;5461480;26;20010;-66
2024/04/22 09:40:10;;;;;;;4.35;1.60;;;;;;;-146.27;60.57;46300.84;5461675;26;20069;-68
2024/04/22 09:42:41;;;;;;;8.75;2.38;;;;;;;-146.27;58.47;46328.72;5467335;26;20014;-67
2024/04/22 09:45:11;;;;;;;4.60;1.92;;;;;;;-146.27;58.75;46312.78;5458735;26;20077;-67
2024/04/22 09:47:40;;;;;;;3.13;1.63;;;;;;;-146.27;55.90;46370.53;5466306;26;20057;-66
2024/04/22 09:50:07;;;;;;;6.00;1.42;;;;;;;-146.27;56.45;46310.81;5478091;26;20319;-67
2024/04/22 09:52:33;;;;;;;3.72;1.50;;;;;;;-146.27;55.54;46346.63;5485341;26;20013;-67
2024/04/22 09:55:01;;;;;;;5.43;1.50;;;;;;;-146.27;54.83;46346.63;5461484;26;20013;-66
2024/04/22 09:57:30;;;;;;;5.65;1.67;;;;;;;-146.27;54.22;46392.44;5469311;26;20010;-67
2024/04/22 09:59:56;;;;;;;4.80;1.73;;;;;;;-146.27;54.17;46404.38;5474679;26;20039;-66
2024/04/22 10:02:28;;;;;;;8.15;2.10;;;;;;;-146.27;53.98;46444.19;5487123;26;20002;-67
2024/04/22 10:04:58;;;;;;;5.90;1.77;;;;;;;-146.27;55.02;46392.44;5479919;26;19998;-66
2024/04/22 10:07:25;;;;;;;6.75;1.67;;;;;;;-146.27;53.57;46444.19;5473599;26;20013;-67
2024/04/22 10:09:52;;;;;;;4.80;1.42;;;;;;;-146.27;51.55;46468.06;5487134;26;20063;-67
2024/04/22 10:12:25;;;;;;;8.63;2.00;;;;;;;-146.27;51.86;46436.22;5484115;26;20435;-66
2024/04/22 10:15:01;;;;;;;8.27;2.17;;;;;;;-146.27;52.48;46484.00;5485664;26;20466;-67
2024/04/22 10:17:26;;;;;;;2.60;1.30;;;;;;;-146.27;49.04;46563.63;5479835;26;20070;-66
2024/04/22 10:19:52;;;;;;;3.80;1.50;;;;;;;-146.27;49.69;46523.81;5469654;26;20341;-67
2024/04/22 10:22:17;;;;;;;6.13;1.60;;;;;;;-146.27;47.69;46599.47;5459748;26;20063;-68
2024/04/22 10:24:43;;;;;;;3.53;2.00;;;;;;;-146.27;47.91;46663.16;5460317;26;20013;-68
2024/04/22 10:27:10;;;;;;;7.00;1.67;;;;;;;-146.27;48.20;46613.41;5473666;26;20000;-68
2024/04/22 10:29:36;;;;;;;7.25;1.80;;;;;;;-146.27;48.11;46651.22;5486621;26;19998;-69
2024/04/22 10:32:03;;;;;;;9.75;2.08;;;;;;;-146.27;48.63;46607.44;5464802;26;20046;-68
2024/04/22 10:34:29;;;;;;;2.90;1.73;;;;;;;-146.27;48.19;46639.28;5476760;26;20003;-66
2024/04/22 10:36:55;;;;;;;10.00;1.98;;;;;;;-146.27;46.34;46663.16;5480038;26;20431;-68
2024/04/22 10:39:20;;;;;;;5.38;1.95;;;;;;;-146.27;44.30;46693.03;5454786;26;20396;-67
2024/04/22 10:41:46;;;;;;;2.88;1.40;;;;;;;-146.27;42.48;46832.41;5457976;26;20010;-67
2024/04/22 10:44:11;;;;;;;2.30;1.33;;;;;;;-146.27;42.42;46906.06;5457993;26;20049;-66
2024/04/22 10:46:38;;;;;;;1.92;0.93;;;;;;;-146.27;41.10;46991.69;5460827;26;19999;-67
2024/04/22 10:49:04;;;;;;;3.13;1.20;;;;;;;-146.27;42.29;46955.84;5474777;26;20004;-69
2024/04/22 10:51:32;;;;;;;3.47;1.30;;;;;;;-146.27;41.70;46929.97;5474406;26;20068;-69
2024/04/22 10:53:58;;;;;;;4.50;1.13;;;;;;;-146.27;43.21;46953.84;5460572;26;20003;-69
2024/04/22 10:56:24;;;;;;;3.38;1.15;;;;;;;-146.27;42.66;46945.88;5454902;26;20064;-70
2024/04/22 10:58:51;;;;;;;3.58;1.50;;;;;;;-146.27;43.40;46935.94;5475300;26;19998;-71
2024/04/22 11:01:16;;;;;;;4.30;1.27;;;;;;;-146.27;44.77;46955.84;5473146;26;20127;-70
2024/04/22 11:03:42;;;;;;;7.05;1.63;;;;;;;-146.27;45.36;46961.81;5468928;26;20041;-69
2024/04/22 11:06:12;;;;;;;2.80;1.30;;;;;;;-146.27;45.43;46949.88;5473297;26;20475;-71
2024/04/22 11:08:39;;;;;;;3.90;1.30;;;;;;;-146.27;44.43;46993.66;5482179;26;20017;-70
2024/04/22 11:11:05;;;;;;;2.22;1.38;;;;;;;-146.27;44.79;47021.53;5453652;26;20023;-69
2024/04/22 11:13:32;;;;;;;2.33;1.25;;;;;;;-146.27;45.82;47005.63;5465034;26;20024;-69
2024/04/22 11:16:08;;;;;;;6.90;1.52;;;;;;;-146.27;44.14;47053.41;5472162;26;19998;-71
2024/04/22 11:18:34;;;;;;;4.07;1.60;;;;;;;-146.27;43.89;47005.63;5465329;26;20115;-69